Time;durP1;ratioP1;P1;durP2;ratioP2;P2;SDS_P1;SDS_P2;PMS_P1;PMS_P2;Temp;Humidity;BMP_temperature;BMP_pressure;BME280_temperature;BME280_humidity;BME280_pressure;Samples;Min_cycle;Max_cycle;Signal;HPM_P1;HPM_P2
2023/03/23 00:01:05;;;;;;;4.05;2.13;;;12.70;91.80;;;;;;5087480;28;20078;-67
2023/03/23 00:03:34;;;;;;;2.33;1.77;;;12.70;91.80;;;;;;5086091;28;20050;-67
2023/03/23 00:06:05;;;;;;;5.05;2.28;;;12.70;91.70;;;;;;5088486;28;20447;-66
2023/03/23 00:08:33;;;;;;;4.00;1.77;;;12.70;91.70;;;;;;5097090;28;20444;-66
2023/03/23 00:11:00;;;;;;;3.40;1.80;;;12.70;91.70;;;;;;5093273;28;20371;-67
2023/03/23 00:13:27;;;;;;;3.72;1.92;;;12.70;91.70;;;;;;5091412;28;20077;-66
2023/03/23 00:15:53;;;;;;;3.97;1.50;;;12.70;91.60;;;;;;5085715;28;20055;-68
2023/03/23 00:18:23;;;;;;;2.42;1.67;;;12.70;91.60;;;;;;5082915;28;20020;-66
2023/03/23 00:20:50;;;;;;;2.65;1.60;;;12.70;91.60;;;;;;5084339;28;20440;-66
2023/03/23 00:23:20;;;;;;;2.28;1.70;;;12.70;91.60;;;;;;5086989;28;20103;-66
2023/03/23 00:25:47;;;;;;;2.80;1.50;;;12.70;91.50;;;;;;5091129;28;20032;-66
2023/03/23 00:28:14;;;;;;;2.75;1.48;;;12.80;91.50;;;;;;5089994;28;20030;-67
2023/03/23 00:30:41;;;;;;;2.72;1.60;;;12.80;91.40;;;;;;5089025;28;20024;-68
2023/03/23 00:33:08;;;;;;;3.72;1.88;;;12.80;91.30;;;;;;5091007;28;20032;-66
2023/03/23 00:35:35;;;;;;;3.33;2.00;;;12.80;91.30;;;;;;5087912;28;20103;-67
2023/03/23 00:38:01;;;;;;;2.78;1.48;;;12.80;91.30;;;;;;5088761;28;20035;-67
2023/03/23 00:40:27;;;;;;;5.72;1.80;;;12.80;91.20;;;;;;5091234;28;20032;-67
2023/03/23 00:42:53;;;;;;;2.35;1.63;;;12.80;91.20;;;;;;5088932;28;20523;-66
2023/03/23 00:45:18;;;;;;;2.60;1.60;;;12.80;91.20;;;;;;5088157;28;20020;-67
2023/03/23 00:47:46;;;;;;;3.97;1.80;;;12.80;91.10;;;;;;5090674;28;20085;-67
2023/03/23 00:50:13;;;;;;;3.05;1.40;;;12.90;91.10;;;;;;5089528;28;20058;-68
2023/03/23 00:52:40;;;;;;;2.85;1.40;;;12.90;91.00;;;;;;5090845;28;20115;-67
2023/03/23 00:55:06;;;;;;;2.35;1.30;;;12.90;91.00;;;;;;5087619;28;20020;-67
2023/03/23 00:57:32;;;;;;;2.25;1.50;;;12.90;91.00;;;;;;5080131;28;20029;-68
2023/03/23 00:59:57;;;;;;;2.45;1.40;;;12.90;91.00;;;;;;5075349;28;20036;-67
2023/03/23 01:02:24;;;;;;;2.95;1.77;;;12.90;91.00;;;;;;5082260;28;20020;-67
2023/03/23 01:04:51;;;;;;;1.60;1.20;;;12.80;90.90;;;;;;5073723;28;20094;-66
2023/03/23 01:07:20;;;;;;;6.22;1.90;;;12.80;90.90;;;;;;5088206;28;20016;-67
2023/03/23 01:09:47;;;;;;;2.72;1.65;;;12.80;91.00;;;;;;5076966;28;20029;-67
2023/03/23 01:12:14;;;;;;;3.33;1.95;;;12.80;91.00;;;;;;5089475;28;20024;-66
2023/03/23 01:14:40;;;;;;;2.80;2.00;;;12.80;91.00;;;;;;5086402;28;20028;-67
2023/03/23 01:17:06;;;;;;;3.03;1.90;;;12.70;90.90;;;;;;5085690;28;20028;-67
2023/03/23 01:19:31;;;;;;;4.82;2.08;;;12.70;90.90;;;;;;5078632;28;20025;-68
2023/03/23 01:21:57;;;;;;;2.25;1.80;;;12.70;90.90;;;;;;5070463;28;20108;-67
2023/03/23 01:24:22;;;;;;;3.63;1.60;;;12.80;90.90;;;;;;5083551;28;20094;-67
2023/03/23 01:26:49;;;;;;;3.28;2.00;;;12.80;90.90;;;;;;5077341;28;20107;-68
2023/03/23 01:29:14;;;;;;;2.65;1.85;;;12.80;91.10;;;;;;5081838;28;20028;-67
2023/03/23 01:31:42;;;;;;;3.35;2.28;;;12.80;90.80;;;;;;5082242;28;20043;-66
2023/03/23 01:34:08;;;;;;;1.80;1.52;;;12.80;90.80;;;;;;5072815;28;20043;-67
2023/03/23 01:36:33;;;;;;;3.45;2.10;;;12.80;90.70;;;;;;5073182;28;20063;-68
2023/03/23 01:39:02;;;;;;;1.75;1.20;;;12.80;90.70;;;;;;5089541;28;20024;-68
2023/03/23 01:41:27;;;;;;;3.50;2.05;;;12.80;90.70;;;;;;5077318;28;20020;-67
2023/03/23 01:44:03;;;;;;;3.47;1.80;;;12.80;90.60;;;;;;5071729;28;20051;-70
2023/03/23 01:46:33;;;;;;;2.67;1.85;;;12.90;90.60;;;;;;5080601;28;20584;-68
2023/03/23 01:49:07;;;;;;;2.80;2.03;;;12.80;90.50;;;;;;5077006;28;20020;-68
2023/03/23 01:51:36;;;;;;;4.15;1.80;;;12.80;90.50;;;;;;5083516;28;20494;-67
2023/03/23 01:54:05;;;;;;;3.33;2.08;;;12.80;90.50;;;;;;5090853;28;20024;-69
2023/03/23 01:56:57;;;;;;;2.85;1.70;;;12.80;90.40;;;;;;5086499;28;20543;-67
2023/03/23 01:59:25;;;;;;;2.33;1.70;;;12.80;90.40;;;;;;5076488;28;20038;-66
2023/03/23 02:01:52;;;;;;;1.98;1.50;;;12.80;90.30;;;;;;5083621;28;20054;-66
2023/03/23 02:04:19;;;;;;;3.58;1.90;;;12.80;90.30;;;;;;5073694;28;20483;-66
2023/03/23 02:06:45;;;;;;;5.13;2.10;;;12.90;90.20;;;;;;5082518;28;20547;-68
2023/03/23 02:09:17;;;;;;;2.50;1.70;;;12.90;90.20;;;;;;5089896;28;20475;-67
2023/03/23 02:11:42;;;;;;;5.30;2.00;;;12.90;90.10;;;;;;5076527;28;20020;-68
2023/03/23 02:14:08;;;;;;;2.45;1.52;;;12.90;90.10;;;;;;5091675;28;20035;-67
2023/03/23 02:17:04;;;;;;;2.22;1.83;;;12.90;90.10;;;;;;5088949;28;20413;-67
2023/03/23 02:19:48;;;;;;;5.45;2.28;;;12.90;90.10;;;;;;5088236;28;20032;-66
2023/03/23 02:22:47;;;;;;;3.90;2.47;;;12.90;90.10;;;;;;5089580;28;20052;-66
2023/03/23 02:25:49;;;;;;;3.53;2.13;;;12.90;90.20;;;;;;5082313;28;20532;-66
2023/03/23 02:28:44;;;;;;;2.97;1.70;;;12.90;90.20;;;;;;5071804;28;20024;-67
2023/03/23 02:31:42;;;;;;;4.10;2.53;;;12.90;90.20;;;;;;5082803;28;20478;-67
2023/03/23 02:34:18;;;;;;;3.75;2.53;;;12.90;90.30;;;;;;5086349;28;20032;-67
2023/03/23 02:37:05;;;;;;;4.05;2.30;;;12.90;90.30;;;;;;5077093;28;20052;-68
2023/03/23 02:39:37;;;;;;;3.75;2.00;;;12.90;90.30;;;;;;5082165;28;20024;-67
2023/03/23 02:42:06;;;;;;;3.13;1.70;;;12.90;90.30;;;;;;5081025;28;20017;-67
2023/03/23 02:44:35;;;;;;;2.17;1.67;;;12.90;90.20;;;;;;5088114;28;20051;-66
2023/03/23 02:47:05;;;;;;;3.03;2.47;;;13.00;90.20;;;;;;5083715;28;20038;-66
2023/03/23 02:49:35;;;;;;;3.55;2.20;;;13.00;90.20;;;;;;5071555;28;20020;-67
2023/03/23 02:52:08;;;;;;;2.58;1.85;;;13.00;90.20;;;;;;5084875;28;20065;-68
2023/03/23 02:54:35;;;;;;;3.53;1.80;;;13.00;90.20;;;;;;5084927;28;20415;-67
2023/03/23 02:57:02;;;;;;;2.03;1.67;;;13.10;90.20;;;;;;5080024;28;20020;-68
2023/03/23 02:59:28;;;;;;;3.22;2.20;;;13.10;90.20;;;;;;5070625;28;20036;-67
2023/03/23 03:02:04;;;;;;;4.43;2.45;;;13.10;90.20;;;;;;5078659;28;20025;-66
2023/03/23 03:04:31;;;;;;;3.50;2.17;;;13.10;90.20;;;;;;5081488;28;20028;-66
2023/03/23 03:07:15;;;;;;;3.45;1.77;;;13.10;90.20;;;;;;5082887;28;20057;-66
2023/03/23 03:09:59;;;;;;;2.30;1.75;;;13.10;90.20;;;;;;5070747;28;20077;-67
2023/03/23 03:12:45;;;;;;;4.25;2.10;;;13.10;90.10;;;;;;5078421;28;20031;-68
2023/03/23 03:15:36;;;;;;;3.90;2.38;;;13.10;90.10;;;;;;5064610;28;20067;-66
2023/03/23 03:18:06;;;;;;;3.05;2.00;;;13.10;90.10;;;;;;5073880;28;20024;-68
2023/03/23 03:20:35;;;;;;;2.58;1.92;;;13.10;90.10;;;;;;5074005;28;20031;-66
2023/03/23 03:23:01;;;;;;;3.88;1.90;;;13.10;90.10;;;;;;5084761;28;20052;-65
2023/03/23 03:25:28;;;;;;;4.18;2.45;;;13.10;90.10;;;;;;5084009;28;20107;-65
2023/03/23 03:27:55;;;;;;;1.80;1.50;;;13.10;90.10;;;;;;5079778;28;20078;-65
2023/03/23 03:30:26;;;;;;;3.00;1.70;;;13.10;90.10;;;;;;5070186;28;20029;-67
2023/03/23 03:32:55;;;;;;;1.50;1.30;;;13.10;90.10;;;;;;5086055;28;20024;-67
2023/03/23 03:35:23;;;;;;;1.45;1.35;;;13.10;90.00;;;;;;5084941;28;20399;-67
2023/03/23 03:37:50;;;;;;;3.40;1.73;;;13.10;90.00;;;;;;5078446;28;20445;-65
2023/03/23 03:40:20;;;;;;;2.28;1.52;;;13.10;90.00;;;;;;5089537;28;20474;-66
2023/03/23 03:42:45;;;;;;;2.67;1.40;;;13.10;90.00;;;;;;5080797;28;20029;-66
2023/03/23 03:45:14;;;;;;;2.25;1.50;;;13.10;90.00;;;;;;5074878;28;20487;-67
2023/03/23 03:47:39;;;;;;;2.83;1.50;;;13.10;90.00;;;;;;5077000;28;20090;-67
2023/03/23 03:50:06;;;;;;;2.75;1.30;;;13.10;90.10;;;;;;5086958;28;20082;-67
2023/03/23 03:52:32;;;;;;;1.67;1.20;;;13.10;90.10;;;;;;5077829;28;20027;-67
2023/03/23 03:54:58;;;;;;;1.10;0.90;;;13.10;90.10;;;;;;5075300;28;20045;-66
2023/03/23 03:57:24;;;;;;;1.85;1.33;;;13.20;90.10;;;;;;5085682;28;20059;-67
2023/03/23 03:59:50;;;;;;;3.20;2.10;;;13.20;90.10;;;;;;5083313;28;20381;-69
2023/03/23 04:02:19;;;;;;;2.08;1.80;;;13.10;90.40;;;;;;5074151;28;20024;-67
2023/03/23 04:04:48;;;;;;;2.58;1.70;;;13.10;90.10;;;;;;5077116;28;20024;-66
2023/03/23 04:07:16;;;;;;;1.67;1.48;;;13.10;90.10;;;;;;5086081;28;20025;-67
2023/03/23 04:09:46;;;;;;;1.98;1.48;;;13.10;90.10;;;;;;5082512;28;20135;-66
2023/03/23 04:12:12;;;;;;;1.90;1.67;;;13.10;90.10;;;;;;5087379;28;20028;-66
2023/03/23 04:14:38;;;;;;;3.38;2.05;;;13.10;90.10;;;;;;5086005;28;20020;-66
2023/03/23 04:17:03;;;;;;;3.03;2.10;;;13.10;90.30;;;;;;5084235;28;20051;-66
2023/03/23 04:19:32;;;;;;;3.85;2.00;;;13.10;90.00;;;;;;5084869;28;20035;-66
2023/03/23 04:21:58;;;;;;;2.58;1.70;;;13.10;90.00;;;;;;5088811;28;20013;-67
2023/03/23 04:24:24;;;;;;;2.65;1.83;;;13.10;89.90;;;;;;5084851;28;20035;-67
2023/03/23 04:26:51;;;;;;;3.28;1.55;;;13.10;89.90;;;;;;5075725;28;20024;-66
2023/03/23 04:29:18;;;;;;;2.17;1.58;;;13.10;89.80;;;;;;5072988;28;20028;-66
2023/03/23 04:31:45;;;;;;;2.92;2.20;;;13.20;89.80;;;;;;5069848;28;20028;-67
2023/03/23 04:34:14;;;;;;;2.05;1.60;;;13.20;89.60;;;;;;5083131;28;20016;-67
2023/03/23 04:36:40;;;;;;;3.03;1.80;;;13.20;89.60;;;;;;5086325;28;20040;-67
2023/03/23 04:39:09;;;;;;;5.45;2.20;;;13.20;89.40;;;;;;5084975;28;20140;-67
2023/03/23 04:41:38;;;;;;;3.58;1.83;;;13.20;89.30;;;;;;5086282;28;20024;-67
2023/03/23 04:44:04;;;;;;;2.10;1.60;;;13.20;89.30;;;;;;5069653;28;20039;-66
2023/03/23 04:46:30;;;;;;;1.67;1.50;;;13.20;89.20;;;;;;5088674;28;20445;-67
2023/03/23 04:48:58;;;;;;;3.85;1.98;;;13.20;89.70;;;;;;5075555;28;20025;-68
2023/03/23 04:51:24;;;;;;;2.72;1.73;;;13.20;89.00;;;;;;5078552;28;20035;-68
2023/03/23 04:53:50;;;;;;;3.05;1.70;;;13.30;88.90;;;;;;5074536;28;20024;-68
2023/03/23 04:56:16;;;;;;;3.00;1.63;;;13.20;88.80;;;;;;5068593;28;20024;-67
2023/03/23 04:58:43;;;;;;;3.10;1.85;;;13.30;88.80;;;;;;5078689;28;20020;-67
2023/03/23 05:01:09;;;;;;;2.83;1.50;;;13.30;88.80;;;;;;5070387;28;20024;-67
2023/03/23 05:03:34;;;;;;;1.85;1.30;;;13.30;88.50;;;;;;5071169;28;20036;-66
2023/03/23 05:06:02;;;;;;;3.08;1.42;;;13.30;88.50;;;;;;5080780;28;20020;-68
2023/03/23 05:08:28;;;;;;;2.92;1.30;;;13.30;88.40;;;;;;5084237;28;20035;-69
2023/03/23 05:10:55;;;;;;;2.88;1.20;;;13.30;88.30;;;;;;5074396;28;20029;-65
2023/03/23 05:13:21;;;;;;;4.88;1.92;;;13.30;88.20;;;;;;5074174;28;20074;-66
2023/03/23 05:15:47;;;;;;;1.98;1.45;;;13.30;87.90;;;;;;5088819;28;20036;-68
2023/03/23 05:18:13;;;;;;;3.28;1.30;;;13.30;88.00;;;;;;5084883;28;20025;-68
2023/03/23 05:20:39;;;;;;;2.08;1.30;;;13.30;87.90;;;;;;5077899;28;20055;-66
2023/03/23 05:23:05;;;;;;;2.33;1.15;;;13.30;87.80;;;;;;5073669;28;20051;-67
2023/03/23 05:25:32;;;;;;;2.10;1.17;;;13.30;87.80;;;;;;5085779;28;20450;-66
2023/03/23 05:27:58;;;;;;;2.75;1.40;;;13.30;87.80;;;;;;5092588;28;20047;-67
2023/03/23 05:30:24;;;;;;;3.33;1.05;;;13.30;87.60;;;;;;5088231;28;20053;-68
2023/03/23 05:32:50;;;;;;;2.80;1.17;;;13.30;87.70;;;;;;5072532;28;20032;-67
2023/03/23 05:35:17;;;;;;;3.53;1.35;;;13.30;87.60;;;;;;5079422;28;20029;-68
2023/03/23 05:37:44;;;;;;;2.10;1.20;;;13.30;87.30;;;;;;5078605;28;20020;-66
2023/03/23 05:40:11;;;;;;;1.45;0.90;;;13.30;87.40;;;;;;5082322;28;20016;-67
2023/03/23 05:42:40;;;;;;;1.92;1.13;;;13.30;87.40;;;;;;5078614;28;20020;-68
2023/03/23 05:45:08;;;;;;;2.05;1.23;;;13.30;87.30;;;;;;5090440;28;20042;-68
2023/03/23 05:47:34;;;;;;;3.75;1.50;;;13.30;87.30;;;;;;5089828;28;20021;-67
2023/03/23 05:50:00;;;;;;;2.55;1.13;;;13.30;87.20;;;;;;5086175;28;20027;-67
2023/03/23 05:52:26;;;;;;;2.10;1.55;;;13.30;87.00;;;;;;5092299;28;20024;-66
2023/03/23 05:54:52;;;;;;;1.95;1.10;;;13.30;87.10;;;;;;5090346;28;20028;-67
2023/03/23 05:57:21;;;;;;;2.05;1.00;;;13.30;86.90;;;;;;5086013;28;20109;-66
2023/03/23 05:59:47;;;;;;;2.25;1.10;;;13.30;86.80;;;;;;5092029;28;20042;-68
2023/03/23 06:02:14;;;;;;;4.13;1.40;;;13.30;86.80;;;;;;5094648;28;20020;-67
2023/03/23 06:04:40;;;;;;;3.40;1.40;;;13.30;86.60;;;;;;5092199;28;20020;-68
2023/03/23 06:07:07;;;;;;;1.77;0.90;;;13.30;86.30;;;;;;5093758;28;20020;-67
2023/03/23 06:09:32;;;;;;;4.63;1.30;;;13.30;86.40;;;;;;5091622;28;20024;-67
2023/03/23 06:11:58;;;;;;;3.63;1.13;;;13.30;86.40;;;;;;5091224;28;20386;-67
2023/03/23 06:14:23;;;;;;;2.60;1.20;;;13.30;86.20;;;;;;5085648;28;20040;-68
2023/03/23 06:16:49;;;;;;;1.73;1.00;;;13.30;86.30;;;;;;5080766;28;20020;-67
2023/03/23 06:19:15;;;;;;;3.08;1.20;;;13.30;86.30;;;;;;5089174;28;20432;-67
2023/03/23 06:21:42;;;;;;;0.85;0.75;;;13.40;86.40;;;;;;5085950;28;20107;-67
2023/03/23 06:24:08;;;;;;;1.77;0.93;;;13.40;86.50;;;;;;5087563;28;20611;-67
2023/03/23 06:26:36;;;;;;;3.25;1.10;;;13.40;86.20;;;;;;5090195;28;20074;-68
2023/03/23 06:29:10;;;;;;;2.53;1.30;;;13.40;86.10;;;;;;5090870;28;20061;-66
2023/03/23 06:31:50;;;;;;;2.95;1.17;;;13.40;86.10;;;;;;5097763;28;20478;-66
2023/03/23 06:34:16;;;;;;;2.95;1.30;;;13.40;86.00;;;;;;5090951;28;20023;-67
2023/03/23 06:36:44;;;;;;;2.28;1.23;;;13.40;86.00;;;;;;5095832;28;20118;-67
2023/03/23 06:39:10;;;;;;;2.63;1.13;;;13.50;85.90;;;;;;5098420;28;20035;-66
2023/03/23 06:41:36;;;;;;;3.03;1.15;;;13.40;85.80;;;;;;5091387;28;20020;-66
2023/03/23 06:44:02;;;;;;;4.43;1.10;;;13.40;85.90;;;;;;5090702;28;20020;-66
2023/03/23 06:46:28;;;;;;;2.42;1.10;;;13.40;85.80;;;;;;5089643;28;20050;-66
2023/03/23 06:48:54;;;;;;;3.97;1.00;;;13.40;86.00;;;;;;5091101;28;20085;-66
2023/03/23 06:51:20;;;;;;;2.67;1.08;;;13.40;85.80;;;;;;5089793;28;20390;-67
2023/03/23 06:53:46;;;;;;;2.15;0.98;;;13.40;86.00;;;;;;5090894;28;20028;-67
2023/03/23 06:56:12;;;;;;;2.47;0.80;;;13.40;85.80;;;;;;5090831;28;20024;-68
2023/03/23 06:58:39;;;;;;;2.35;0.90;;;13.40;85.90;;;;;;5091224;28;20103;-67
2023/03/23 07:01:05;;;;;;;3.85;1.27;;;13.40;85.80;;;;;;5090408;28;20095;-66
2023/03/23 07:03:31;;;;;;;1.65;0.90;;;13.40;85.70;;;;;;5089980;28;20021;-66
2023/03/23 07:05:58;;;;;;;3.40;1.25;;;13.40;85.70;;;;;;5091175;28;20024;-67
2023/03/23 07:08:24;;;;;;;3.85;1.00;;;13.40;85.80;;;;;;5090852;28;20024;-67
2023/03/23 07:10:54;;;;;;;2.35;1.05;;;13.40;85.80;;;;;;5091074;28;20024;-68
2023/03/23 07:13:21;;;;;;;3.95;1.20;;;13.40;86.00;;;;;;5090677;28;20028;-68
2023/03/23 07:15:48;;;;;;;4.93;1.40;;;13.40;86.10;;;;;;5089569;28;20072;-68
2023/03/23 07:18:13;;;;;;;2.38;0.90;;;13.40;86.10;;;;;;5089321;28;20576;-66
2023/03/23 07:20:39;;;;;;;1.58;1.05;;;13.40;86.10;;;;;;5090839;28;20090;-67
2023/03/23 07:23:07;;;;;;;2.17;1.10;;;13.40;86.10;;;;;;5089129;28;20032;-68
2023/03/23 07:25:34;;;;;;;2.85;1.10;;;13.40;86.00;;;;;;5087721;28;20032;-68
2023/03/23 07:28:01;;;;;;;4.65;1.40;;;13.40;86.00;;;;;;5074209;28;20034;-66
2023/03/23 07:30:29;;;;;;;2.92;1.00;;;13.40;85.90;;;;;;5082549;28;20027;-68
2023/03/23 07:32:54;;;;;;;1.50;1.10;;;13.40;85.90;;;;;;5089628;28;20016;-69
2023/03/23 07:35:20;;;;;;;2.88;1.30;;;13.50;85.90;;;;;;5083826;28;20039;-67
2023/03/23 07:37:48;;;;;;;1.40;0.98;;;13.50;85.90;;;;;;5090473;28;20012;-66
2023/03/23 07:40:14;;;;;;;4.03;1.30;;;13.50;85.90;;;;;;5088259;28;20058;-66
2023/03/23 07:42:42;;;;;;;3.13;1.00;;;13.50;85.70;;;;;;5090238;28;20035;-67
2023/03/23 07:45:09;;;;;;;4.00;1.00;;;13.50;85.80;;;;;;5090275;28;20074;-66
2023/03/23 07:47:34;;;;;;;4.05;1.20;;;13.40;85.60;;;;;;5083921;28;20040;-66
2023/03/23 07:50:00;;;;;;;1.55;1.20;;;13.40;85.60;;;;;;5084862;28;20063;-68
2023/03/23 07:52:26;;;;;;;1.45;1.00;;;13.40;85.40;;;;;;5089936;28;20024;-67
2023/03/23 07:54:52;;;;;;;1.55;1.00;;;13.30;85.50;;;;;;5090346;28;20423;-66
2023/03/23 07:57:17;;;;;;;2.58;0.90;;;13.30;85.30;;;;;;5080058;28;20098;-67
2023/03/23 07:59:43;;;;;;;1.00;0.90;;;13.30;85.40;;;;;;5091439;28;20058;-67
2023/03/23 08:02:09;;;;;;;1.33;0.73;;;13.30;85.40;;;;;;5084507;28;20593;-68
2023/03/23 08:04:37;;;;;;;3.28;1.05;;;13.30;85.50;;;;;;5083544;28;20073;-68
2023/03/23 08:07:04;;;;;;;1.55;1.00;;;13.20;85.50;;;;;;5086093;28;20028;-67
2023/03/23 08:09:30;;;;;;;2.20;1.20;;;13.20;85.60;;;;;;5083516;28;20024;-68
2023/03/23 08:11:55;;;;;;;1.33;0.90;;;13.10;85.80;;;;;;5083181;28;20339;-68
2023/03/23 08:14:21;;;;;;;1.05;0.90;;;13.10;85.90;;;;;;5088013;28;20099;-67
2023/03/23 08:16:48;;;;;;;2.00;1.00;;;13.10;86.20;;;;;;5084538;28;20023;-67
2023/03/23 08:19:13;;;;;;;2.45;0.95;;;13.10;86.30;;;;;;5092618;28;20024;-68
2023/03/23 08:21:39;;;;;;;2.10;1.15;;;13.00;86.50;;;;;;5088811;28;20029;-66
2023/03/23 08:24:06;;;;;;;2.50;0.93;;;13.10;86.70;;;;;;5085169;28;20668;-67
2023/03/23 08:26:31;;;;;;;2.00;1.02;;;13.10;86.80;;;;;;5082855;28;20027;-66
2023/03/23 08:28:57;;;;;;;1.95;0.90;;;13.20;86.90;;;;;;5082815;28;20024;-66
2023/03/23 08:31:23;;;;;;;0.90;0.82;;;13.10;86.80;;;;;;5088004;28;20488;-67
2023/03/23 08:33:49;;;;;;;2.90;1.08;;;13.10;86.90;;;;;;5089592;28;20077;-66
2023/03/23 08:36:14;;;;;;;2.67;1.02;;;13.20;86.90;;;;;;5085113;28;20056;-68
2023/03/23 08:38:40;;;;;;;1.48;0.80;;;13.20;87.60;;;;;;5085875;28;20435;-66
2023/03/23 08:41:07;;;;;;;2.22;1.00;;;13.20;87.10;;;;;;5086876;28;20020;-67
2023/03/23 08:43:34;;;;;;;2.20;1.00;;;13.20;87.30;;;;;;5090101;28;20069;-67
2023/03/23 08:46:01;;;;;;;1.90;1.13;;;13.20;87.50;;;;;;5099256;28;20035;-68
2023/03/23 08:48:27;;;;;;;2.38;0.85;;;13.20;87.50;;;;;;5088174;28;20020;-68
2023/03/23 08:50:53;;;;;;;2.45;1.10;;;13.20;87.50;;;;;;5084952;28;20073;-68
2023/03/23 08:53:20;;;;;;;2.83;0.90;;;13.30;87.30;;;;;;5081251;28;20024;-69
2023/03/23 08:55:47;;;;;;;2.97;0.98;;;13.40;87.10;;;;;;5087980;28;20443;-66
2023/03/23 08:58:12;;;;;;;1.67;1.15;;;13.40;87.00;;;;;;5086102;28;20032;-66
2023/03/23 09:00:38;;;;;;;2.15;0.90;;;13.30;86.90;;;;;;5091160;28;20024;-66
2023/03/23 09:03:04;;;;;;;2.40;1.08;;;13.40;87.00;;;;;;5088349;28;20039;-66
2023/03/23 09:05:30;;;;;;;4.88;1.33;;;13.40;86.80;;;;;;5087534;28;20032;-67
2023/03/23 09:07:58;;;;;;;1.40;0.90;;;13.50;86.80;;;;;;5082545;28;20032;-68
2023/03/23 09:10:26;;;;;;;2.65;1.40;;;13.40;86.70;;;;;;5088558;28;20038;-68
2023/03/23 09:12:52;;;;;;;0.80;0.80;;;13.40;86.60;;;;;;5091742;28;20020;-67
2023/03/23 09:15:18;;;;;;;4.45;1.20;;;13.40;86.60;;;;;;5086082;28;20046;-69
2023/03/23 09:17:46;;;;;;;1.85;0.90;;;13.40;86.30;;;;;;5086752;28;20047;-68
2023/03/23 09:20:14;;;;;;;1.75;1.00;;;13.40;86.10;;;;;;5088423;28;20016;-69
2023/03/23 09:22:45;;;;;;;1.50;0.90;;;13.40;86.00;;;;;;5088903;28;20126;-66
2023/03/23 09:25:14;;;;;;;1.92;0.80;;;13.50;85.70;;;;;;5091378;28;20028;-67
2023/03/23 09:27:41;;;;;;;1.65;0.90;;;13.60;85.70;;;;;;5087748;28;20533;-66
2023/03/23 09:30:10;;;;;;;1.77;0.98;;;13.60;85.10;;;;;;5086079;28;20587;-67
2023/03/23 09:32:36;;;;;;;1.20;0.90;;;13.70;84.80;;;;;;5090742;28;20024;-66
2023/03/23 09:35:07;;;;;;;2.22;0.93;;;13.80;84.20;;;;;;5087616;28;20440;-67
2023/03/23 09:37:34;;;;;;;1.90;1.23;;;13.70;84.20;;;;;;5086633;28;20013;-68
2023/03/23 09:39:59;;;;;;;2.30;1.10;;;13.70;84.00;;;;;;5090145;28;20028;-66
2023/03/23 09:42:51;;;;;;;1.92;0.85;;;13.70;83.90;;;;;;5091067;28;20020;-67
2023/03/23 09:45:25;;;;;;;1.88;0.80;;;13.80;84.00;;;;;;5089368;28;20024;-67
2023/03/23 09:48:03;;;;;;;3.70;0.90;;;13.90;83.70;;;;;;5089936;28;20092;-67
2023/03/23 09:50:32;;;;;;;1.42;0.80;;;13.90;83.40;;;;;;5090757;28;20355;-65
2023/03/23 09:53:08;;;;;;;1.60;0.85;;;13.90;83.50;;;;;;5087911;28;20518;-66
2023/03/23 09:55:35;;;;;;;2.13;0.77;;;14.00;83.60;;;;;;5081073;28;20029;-67
2023/03/23 09:58:26;;;;;;;2.42;0.90;;;14.20;83.50;;;;;;5092962;28;20042;-69
2023/03/23 10:01:07;;;;;;;1.15;0.80;;;14.20;82.90;;;;;;5089308;28;20025;-68
2023/03/23 10:03:41;;;;;;;1.17;0.70;;;14.20;82.70;;;;;;5089214;28;20485;-67
2023/03/23 10:06:15;;;;;;;2.88;1.17;;;14.30;82.70;;;;;;5089880;28;20024;-65
2023/03/23 10:08:46;;;;;;;1.70;1.05;;;14.30;82.20;;;;;;5088943;28;20016;-67
2023/03/23 10:11:22;;;;;;;1.17;0.88;;;14.30;82.20;;;;;;5087382;28;20069;-67
2023/03/23 10:13:54;;;;;;;3.17;1.05;;;14.20;82.40;;;;;;5090862;28;20043;-66
2023/03/23 10:16:28;;;;;;;1.38;0.73;;;14.30;82.10;;;;;;5089537;28;20099;-66
2023/03/23 10:19:00;;;;;;;5.18;1.30;;;14.30;82.10;;;;;;5095553;28;20809;-66
2023/03/23 10:21:30;;;;;;;1.05;0.60;;;14.40;82.00;;;;;;5088081;28;20501;-66
2023/03/23 10:24:03;;;;;;;1.83;0.63;;;14.40;82.10;;;;;;5085092;28;20073;-68
2023/03/23 10:26:44;;;;;;;4.60;1.08;;;14.70;82.00;;;;;;5091800;28;20032;-66
2023/03/23 10:29:23;;;;;;;2.95;1.40;;;14.80;80.90;;;;;;5082533;28;20748;-68
2023/03/23 10:31:52;;;;;;;5.00;1.30;;;14.90;80.70;;;;;;5086661;28;20482;-68
2023/03/23 10:34:39;;;;;;;3.10;1.00;;;14.90;79.60;;;;;;5092712;28;20020;-68
2023/03/23 10:37:12;;;;;;;2.92;1.50;;;14.90;80.00;;;;;;5086815;28;20019;-66
2023/03/23 10:39:58;;;;;;;3.88;1.45;;;15.00;80.10;;;;;;5094147;28;20024;-68
2023/03/23 10:42:31;;;;;;;4.28;1.30;;;15.00;79.90;;;;;;5088101;28;20081;-68
2023/03/23 10:44:58;;;;;;;2.03;1.02;;;14.90;78.80;;;;;;5088368;28;20551;-68
2023/03/23 10:47:24;;;;;;;5.25;1.38;;;14.90;79.10;;;;;;5086509;28;20024;-68
2023/03/23 10:49:55;;;;;;;4.63;1.20;;;14.90;78.90;;;;;;5089667;28;20027;-66
2023/03/23 10:52:20;;;;;;;2.78;1.20;;;14.90;78.90;;;;;;5090415;28;20402;-69
2023/03/23 10:54:53;;;;;;;4.13;1.23;;;14.90;79.00;;;;;;5087440;28;20024;-67
2023/03/23 10:57:23;;;;;;;4.70;1.05;;;14.90;77.80;;;;;;5083247;28;20099;-68
2023/03/23 10:59:49;;;;;;;5.20;1.88;;;14.80;78.20;;;;;;5086838;28;20107;-67
2023/03/23 11:02:18;;;;;;;4.90;0.93;;;14.90;77.80;;;;;;5088860;28;20020;-68
2023/03/23 11:05:07;;;;;;;6.13;1.52;;;14.80;77.30;;;;;;5088798;28;20050;-66
2023/03/23 11:07:34;;;;;;;3.15;1.17;;;14.90;77.40;;;;;;5086558;28;20148;-67
2023/03/23 11:10:18;;;;;;;4.13;1.58;;;15.00;77.60;;;;;;5090578;28;20166;-67
2023/03/23 11:12:46;;;;;;;1.85;0.98;;;15.00;76.80;;;;;;5088804;28;20047;-67
2023/03/23 11:15:52;;;;;;;5.45;1.63;;;15.00;77.00;;;;;;5088502;28;20028;-66
2023/03/23 11:18:20;;;;;;;4.95;1.30;;;15.00;76.70;;;;;;5082728;28;20417;-66
2023/03/23 11:20:50;;;;;;;1.20;1.10;;;15.00;76.30;;;;;;5088741;28;20073;-68
2023/03/23 11:23:22;;;;;;;1.67;1.00;;;15.10;76.20;;;;;;5087624;28;20401;-66
2023/03/23 11:26:10;;;;;;;1.83;1.20;;;15.10;76.30;;;;;;5086329;28;20036;-67
2023/03/23 11:28:38;;;;;;;2.13;1.35;;;15.30;76.70;;;;;;5086406;28;20040;-66
2023/03/23 11:31:06;;;;;;;4.43;1.20;;;15.40;75.60;;;;;;5087376;28;20107;-68
2023/03/23 11:33:47;;;;;;;3.97;1.58;;;15.60;75.80;;;;;;5088130;28;20103;-67
2023/03/23 11:36:14;;;;;;;3.00;1.20;;;15.70;75.10;;;;;;5086551;28;20020;-67
2023/03/23 11:38:40;;;;;;;6.15;1.50;;;15.90;75.30;;;;;;5084323;28;20051;-68
2023/03/23 11:41:16;;;;;;;4.32;1.60;;;15.90;75.00;;;;;;5090319;28;20087;-66
2023/03/23 11:43:46;;;;;;;4.03;1.20;;;16.00;74.30;;;;;;5087356;28;20107;-67
2023/03/23 11:46:51;;;;;;;3.67;1.23;;;16.10;74.90;;;;;;5091408;28;20056;-66
2023/03/23 11:49:22;;;;;;;5.38;1.35;;;16.20;74.10;;;;;;5083077;28;20412;-67
2023/03/23 11:51:53;;;;;;;2.70;1.10;;;16.10;73.80;;;;;;5086998;28;20470;-66
2023/03/23 11:54:42;;;;;;;2.45;1.42;;;16.00;74.20;;;;;;5086018;28;20111;-66
2023/03/23 11:57:13;;;;;;;2.75;1.00;;;16.00;74.20;;;;;;5085175;28;20028;-68
2023/03/23 11:59:40;;;;;;;1.95;1.17;;;16.00;74.20;;;;;;5082029;28;20061;-66
2023/03/23 12:02:27;;;;;;;4.85;1.60;;;16.00;74.30;;;;;;5088316;28;20024;-67
2023/03/23 12:05:08;;;;;;;3.05;1.30;;;16.00;73.00;;;;;;5081539;28;20028;-67
2023/03/23 12:08:25;;;;;;;2.58;1.30;;;15.90;73.70;;;;;;5082739;28;20024;-67
2023/03/23 12:11:05;;;;;;;2.38;1.20;;;15.90;73.90;;;;;;5057447;28;20059;-67
2023/03/23 12:13:52;;;;;;;3.17;1.20;;;15.80;74.00;;;;;;5087773;28;20032;-67
2023/03/23 12:16:33;;;;;;;3.47;1.35;;;15.80;74.30;;;;;;5088057;28;20079;-66
2023/03/23 12:19:06;;;;;;;3.05;1.30;;;15.80;74.50;;;;;;5091033;28;20032;-67
2023/03/23 12:22:02;;;;;;;1.95;1.02;;;15.80;74.70;;;;;;5086404;28;20009;-66
2023/03/23 12:24:52;;;;;;;3.13;1.13;;;15.80;74.60;;;;;;5092375;28;20253;-68
2023/03/23 12:27:25;;;;;;;1.60;0.90;;;15.70;74.60;;;;;;5088400;28;20040;-67
2023/03/23 12:29:54;;;;;;;5.68;1.60;;;15.70;74.90;;;;;;5087356;28;20122;-68
2023/03/23 12:32:28;;;;;;;1.55;1.00;;;15.70;74.60;;;;;;5089303;28;20035;-67
2023/03/23 12:35:24;;;;;;;2.80;1.00;;;15.80;75.00;;;;;;5081659;28;20020;-68
2023/03/23 12:38:11;;;;;;;2.80;1.33;;;15.90;75.00;;;;;;5089530;28;20024;-67
2023/03/23 12:41:15;;;;;;;2.55;1.08;;;15.80;74.90;;;;;;5088772;28;20028;-67
2023/03/23 12:44:00;;;;;;;2.60;1.00;;;15.80;75.20;;;;;;5090156;28;20020;-66
2023/03/23 12:46:44;;;;;;;3.63;1.27;;;15.80;75.60;;;;;;5093749;28;20034;-69
2023/03/23 12:49:22;;;;;;;1.20;1.10;;;15.80;75.70;;;;;;5093115;28;20035;-68
2023/03/23 12:51:53;;;;;;;1.55;1.08;;;15.80;75.90;;;;;;5097639;28;20020;-67
2023/03/23 12:54:33;;;;;;;2.50;1.13;;;15.80;76.00;;;;;;5096372;28;20379;-67
2023/03/23 12:57:30;;;;;;;1.75;1.15;;;15.70;76.20;;;;;;5082005;28;20413;-69
2023/03/23 13:00:22;;;;;;;1.77;1.13;;;15.60;76.30;;;;;;5091935;28;20024;-66
2023/03/23 13:03:06;;;;;;;3.15;1.15;;;15.20;76.70;;;;;;5091712;28;20024;-67
2023/03/23 13:05:54;;;;;;;2.42;1.00;;;14.80;77.90;;;;;;5086441;28;20093;-67